sensor_id;sensor_type;location;lat;lon;timestamp;pressure;altitude;pressure_sealevel;temperature;humidity
77171;BME280;66144;50.020;14.422;2023-05-17T00:01:31;98942.56;;;12.20;61.75
77171;BME280;66144;50.020;14.422;2023-05-17T00:03:56;98946.75;;;12.21;61.70
77171;BME280;66144;50.020;14.422;2023-05-17T00:06:21;98940.47;;;12.22;62.87
77171;BME280;66144;50.020;14.422;2023-05-17T00:08:47;98943.06;;;12.17;61.58
77171;BME280;66144;50.020;14.422;2023-05-17T00:11:13;98944.63;;;12.18;58.65
77171;BME280;66144;50.020;14.422;2023-05-17T00:13:39;98953.81;;;12.21;59.82
77171;BME280;66144;50.020;14.422;2023-05-17T00:16:05;98960.63;;;12.22;58.69
77171;BME280;66144;50.020;14.422;2023-05-17T00:18:31;98953.75;;;12.10;57.72
77171;BME280;66144;50.020;14.422;2023-05-17T00:20:56;98956.63;;;12.09;56.26
77171;BME280;66144;50.020;14.422;2023-05-17T00:23:22;98960.28;;;12.08;55.47
77171;BME280;66144;50.020;14.422;2023-05-17T00:25:47;98968.88;;;12.03;54.94
77171;BME280;66144;50.020;14.422;2023-05-17T00:28:12;98964.41;;;11.99;53.51
77171;BME280;66144;50.020;14.422;2023-05-17T00:30:38;98966.53;;;12.02;54.81
77171;BME280;66144;50.020;14.422;2023-05-17T00:33:03;98967.25;;;11.97;54.09
77171;BME280;66144;50.020;14.422;2023-05-17T00:35:29;98963.91;;;12.02;52.14
77171;BME280;66144;50.020;14.422;2023-05-17T00:37:55;98965.47;;;12.03;52.26
77171;BME280;66144;50.020;14.422;2023-05-17T00:40:20;98965.97;;;12.00;52.30
77171;BME280;66144;50.020;14.422;2023-05-17T00:42:46;98955.47;;;11.95;52.12
77171;BME280;66144;50.020;14.422;2023-05-17T00:45:11;98952.31;;;11.93;52.09
77171;BME280;66144;50.020;14.422;2023-05-17T00:47:37;98957.00;;;11.91;51.80
77171;BME280;66144;50.020;14.422;2023-05-17T00:50:04;98954.91;;;11.88;52.14
77171;BME280;66144;50.020;14.422;2023-05-17T00:52:30;98957.81;;;11.91;53.22
77171;BME280;66144;50.020;14.422;2023-05-17T00:54:55;98977.59;;;11.82;51.84
77171;BME280;66144;50.020;14.422;2023-05-17T00:57:20;98978.34;;;11.77;51.34
77171;BME280;66144;50.020;14.422;2023-05-17T00:59:46;98981.25;;;11.81;51.39
77171;BME280;66144;50.020;14.422;2023-05-17T01:02:12;98982.84;;;11.82;53.39
77171;BME280;66144;50.020;14.422;2023-05-17T01:04:37;98988.38;;;11.86;52.35
77171;BME280;66144;50.020;14.422;2023-05-17T01:07:10;98993.34;;;11.87;54.07
77171;BME280;66144;50.020;14.422;2023-05-17T01:09:37;98994.88;;;11.83;51.91
77171;BME280;66144;50.020;14.422;2023-05-17T01:17:30;98999.09;;;11.62;51.15
77171;BME280;66144;50.020;14.422;2023-05-17T01:25:39;99003.00;;;11.60;53.47
77171;BME280;66144;50.020;14.422;2023-05-17T01:28:07;99005.31;;;11.56;51.77
77171;BME280;66144;50.020;14.422;2023-05-17T01:30:34;99001.47;;;11.64;51.78
77171;BME280;66144;50.020;14.422;2023-05-17T01:33:02;99007.41;;;11.54;52.25
77171;BME280;66144;50.020;14.422;2023-05-17T01:35:28;99015.75;;;11.51;53.16
77171;BME280;66144;50.020;14.422;2023-05-17T01:37:53;99017.56;;;11.51;51.60
77171;BME280;66144;50.020;14.422;2023-05-17T01:40:19;99011.84;;;11.54;50.93
77171;BME280;66144;50.020;14.422;2023-05-17T01:42:49;99016.72;;;11.45;51.62
77171;BME280;66144;50.020;14.422;2023-05-17T01:45:22;99016.22;;;11.48;51.57
77171;BME280;66144;50.020;14.422;2023-05-17T01:50:43;99013.50;;;11.38;51.71
77171;BME280;66144;50.020;14.422;2023-05-17T01:53:17;99008.56;;;11.41;51.37
77171;BME280;66144;50.020;14.422;2023-05-17T01:55:53;99014.28;;;11.38;51.63
77171;BME280;66144;50.020;14.422;2023-05-17T01:58:24;99021.31;;;11.33;51.83
77171;BME280;66144;50.020;14.422;2023-05-17T02:00:51;99015.28;;;11.32;51.46
77171;BME280;66144;50.020;14.422;2023-05-17T02:03:18;99011.31;;;11.30;51.53
77171;BME280;66144;50.020;14.422;2023-05-17T02:05:44;99015.75;;;11.29;51.26
77171;BME280;66144;50.020;14.422;2023-05-17T02:08:10;99023.00;;;11.22;52.31
77171;BME280;66144;50.020;14.422;2023-05-17T02:10:35;99028.78;;;11.24;51.98
77171;BME280;66144;50.020;14.422;2023-05-17T02:13:00;99020.84;;;11.19;53.24
77171;BME280;66144;50.020;14.422;2023-05-17T02:15:26;99031.50;;;11.13;52.22
77171;BME280;66144;50.020;14.422;2023-05-17T02:17:51;99033.66;;;11.16;52.06
77171;BME280;66144;50.020;14.422;2023-05-17T02:20:17;99033.50;;;11.05;52.75
77171;BME280;66144;50.020;14.422;2023-05-17T02:22:42;99027.72;;;11.03;51.41
77171;BME280;66144;50.020;14.422;2023-05-17T02:25:08;99035.00;;;11.01;52.00
77171;BME280;66144;50.020;14.422;2023-05-17T02:27:34;99039.31;;;10.91;52.17
77171;BME280;66144;50.020;14.422;2023-05-17T02:29:59;99025.16;;;10.87;52.68
77171;BME280;66144;50.020;14.422;2023-05-17T02:32:26;99034.81;;;10.86;52.23
77171;BME280;66144;50.020;14.422;2023-05-17T02:34:52;99042.19;;;10.89;53.05
77171;BME280;66144;50.020;14.422;2023-05-17T02:37:17;99037.81;;;10.78;52.46
77171;BME280;66144;50.020;14.422;2023-05-17T02:39:43;99041.56;;;10.82;53.52
77171;BME280;66144;50.020;14.422;2023-05-17T02:42:08;99046.22;;;10.80;53.75
77171;BME280;66144;50.020;14.422;2023-05-17T02:44:33;99041.50;;;10.77;53.27
77171;BME280;66144;50.020;14.422;2023-05-17T02:46:59;99052.97;;;10.76;54.45
77171;BME280;66144;50.020;14.422;2023-05-17T02:49:24;99058.50;;;10.63;53.99
77171;BME280;66144;50.020;14.422;2023-05-17T02:51:49;99052.34;;;10.69;53.33
77171;BME280;66144;50.020;14.422;2023-05-17T02:54:15;99060.88;;;10.64;54.30
77171;BME280;66144;50.020;14.422;2023-05-17T02:56:40;99074.13;;;10.58;53.32
77171;BME280;66144;50.020;14.422;2023-05-17T02:59:05;99075.31;;;10.50;52.82
77171;BME280;66144;50.020;14.422;2023-05-17T03:01:31;99082.25;;;10.45;53.43
77171;BME280;66144;50.020;14.422;2023-05-17T03:03:56;99071.03;;;10.44;54.19
77171;BME280;66144;50.020;14.422;2023-05-17T03:06:21;99079.19;;;10.48;55.01
77171;BME280;66144;50.020;14.422;2023-05-17T03:08:47;99078.06;;;10.44;54.73
77171;BME280;66144;50.020;14.422;2023-05-17T03:11:12;99070.22;;;10.44;54.78
77171;BME280;66144;50.020;14.422;2023-05-17T03:13:37;99082.72;;;10.42;55.80
77171;BME280;66144;50.020;14.422;2023-05-17T03:16:03;99083.94;;;10.34;54.38
77171;BME280;66144;50.020;14.422;2023-05-17T03:18:28;99082.25;;;10.28;54.75
77171;BME280;66144;50.020;14.422;2023-05-17T03:20:54;99077.50;;;10.25;55.52
77171;BME280;66144;50.020;14.422;2023-05-17T03:23:19;99084.31;;;10.26;56.06
77171;BME280;66144;50.020;14.422;2023-05-17T03:25:45;99079.00;;;10.21;55.81
77171;BME280;66144;50.020;14.422;2023-05-17T03:28:11;99084.91;;;10.16;55.40
77171;BME280;66144;50.020;14.422;2023-05-17T03:30:36;99090.03;;;10.11;55.42
77171;BME280;66144;50.020;14.422;2023-05-17T03:33:02;99089.81;;;10.13;55.91
77171;BME280;66144;50.020;14.422;2023-05-17T03:35:27;99090.34;;;10.15;57.25
77171;BME280;66144;50.020;14.422;2023-05-17T03:37:52;99090.34;;;10.15;56.10
77171;BME280;66144;50.020;14.422;2023-05-17T03:40:18;99089.94;;;10.06;55.75
77171;BME280;66144;50.020;14.422;2023-05-17T03:42:43;99090.97;;;10.05;57.13
77171;BME280;66144;50.020;14.422;2023-05-17T03:45:09;99106.28;;;10.01;57.37
77171;BME280;66144;50.020;14.422;2023-05-17T03:47:34;99103.22;;;10.04;56.90
77171;BME280;66144;50.020;14.422;2023-05-17T03:50:00;99093.00;;;10.03;56.61
77171;BME280;66144;50.020;14.422;2023-05-17T03:52:25;99102.25;;;9.94;57.88
77171;BME280;66144;50.020;14.422;2023-05-17T03:54:51;99114.38;;;10.00;56.77
77171;BME280;66144;50.020;14.422;2023-05-17T03:57:16;99118.09;;;10.04;57.58
77171;BME280;66144;50.020;14.422;2023-05-17T03:59:42;99110.97;;;9.99;57.44
77171;BME280;66144;50.020;14.422;2023-05-17T04:02:07;99118.53;;;10.01;56.38
77171;BME280;66144;50.020;14.422;2023-05-17T04:04:33;99116.81;;;10.07;55.77
77171;BME280;66144;50.020;14.422;2023-05-17T04:06:58;99119.09;;;10.03;55.86
77171;BME280;66144;50.020;14.422;2023-05-17T04:09:23;99130.03;;;10.00;57.70
77171;BME280;66144;50.020;14.422;2023-05-17T04:11:49;99136.56;;;10.02;56.79
77171;BME280;66144;50.020;14.422;2023-05-17T04:14:19;99132.66;;;10.00;56.88
77171;BME280;66144;50.020;14.422;2023-05-17T04:16:44;99123.75;;;10.01;57.68
77171;BME280;66144;50.020;14.422;2023-05-17T04:19:09;99128.38;;;10.11;57.90
77171;BME280;66144;50.020;14.422;2023-05-17T04:21:35;99123.16;;;10.11;57.27
77171;BME280;66144;50.020;14.422;2023-05-17T04:24:00;99138.03;;;10.10;55.72
77171;BME280;66144;50.020;14.422;2023-05-17T04:26:26;99146.19;;;10.14;57.36
77171;BME280;66144;50.020;14.422;2023-05-17T04:28:51;99151.28;;;10.20;57.50
77171;BME280;66144;50.020;14.422;2023-05-17T04:31:17;99142.34;;;10.16;57.72
77171;BME280;66144;50.020;14.422;2023-05-17T04:33:42;99147.91;;;10.20;57.15
77171;BME280;66144;50.020;14.422;2023-05-17T04:36:07;99151.06;;;10.22;57.61
77171;BME280;66144;50.020;14.422;2023-05-17T04:38:33;99161.81;;;10.25;59.07
77171;BME280;66144;50.020;14.422;2023-05-17T04:41:02;99165.25;;;10.14;57.97
77171;BME280;66144;50.020;14.422;2023-05-17T04:43:31;99169.56;;;10.20;56.91
77171;BME280;66144;50.020;14.422;2023-05-17T04:45:57;99171.47;;;10.25;56.78
77171;BME280;66144;50.020;14.422;2023-05-17T04:48:23;99181.59;;;10.21;57.52
77171;BME280;66144;50.020;14.422;2023-05-17T04:50:50;99183.84;;;10.29;56.86
77171;BME280;66144;50.020;14.422;2023-05-17T04:53:16;99194.16;;;10.36;56.77
77171;BME280;66144;50.020;14.422;2023-05-17T04:55:41;99193.44;;;10.41;56.76
77171;BME280;66144;50.020;14.422;2023-05-17T04:58:06;99195.25;;;10.40;57.15
77171;BME280;66144;50.020;14.422;2023-05-17T05:00:33;99193.19;;;10.42;57.81
77171;BME280;66144;50.020;14.422;2023-05-17T05:02:59;99204.28;;;10.49;57.10
77171;BME280;66144;50.020;14.422;2023-05-17T05:05:24;99208.72;;;10.49;56.21
77171;BME280;66144;50.020;14.422;2023-05-17T05:07:50;99208.09;;;10.58;56.30
77171;BME280;66144;50.020;14.422;2023-05-17T05:10:18;99223.41;;;10.66;56.59
77171;BME280;66144;50.020;14.422;2023-05-17T05:12:43;99220.47;;;10.80;57.88
77171;BME280;66144;50.020;14.422;2023-05-17T05:15:09;99218.19;;;10.83;56.68
77171;BME280;66144;50.020;14.422;2023-05-17T05:17:35;99223.03;;;10.91;57.56
77171;BME280;66144;50.020;14.422;2023-05-17T05:20:00;99230.97;;;10.96;56.11
77171;BME280;66144;50.020;14.422;2023-05-17T05:22:26;99233.50;;;11.08;55.37
77171;BME280;66144;50.020;14.422;2023-05-17T05:24:51;99226.22;;;11.10;56.14
77171;BME280;66144;50.020;14.422;2023-05-17T05:27:16;99234.84;;;11.11;55.48
77171;BME280;66144;50.020;14.422;2023-05-17T05:29:42;99236.91;;;11.08;54.95
77171;BME280;66144;50.020;14.422;2023-05-17T05:32:07;99238.88;;;11.18;55.71
77171;BME280;66144;50.020;14.422;2023-05-17T05:34:33;99242.94;;;11.26;55.40
77171;BME280;66144;50.020;14.422;2023-05-17T05:36:58;99243.16;;;11.24;57.17
77171;BME280;66144;50.020;14.422;2023-05-17T05:39:24;99246.03;;;11.23;56.08
77171;BME280;66144;50.020;14.422;2023-05-17T05:41:49;99253.25;;;11.32;55.73
77171;BME280;66144;50.020;14.422;2023-05-17T05:44:16;99259.97;;;11.45;55.94
77171;BME280;66144;50.020;14.422;2023-05-17T05:46:41;99254.06;;;11.71;54.95
77171;BME280;66144;50.020;14.422;2023-05-17T05:49:07;99263.84;;;11.98;54.89
77171;BME280;66144;50.020;14.422;2023-05-17T05:51:32;99257.78;;;12.14;54.92
77171;BME280;66144;50.020;14.422;2023-05-17T05:53:59;99269.97;;;12.25;53.94
77171;BME280;66144;50.020;14.422;2023-05-17T05:56:24;99276.78;;;12.26;54.05
77171;BME280;66144;50.020;14.422;2023-05-17T05:58:53;99275.75;;;12.27;54.15
77171;BME280;66144;50.020;14.422;2023-05-17T06:01:18;99275.13;;;12.42;54.21
77171;BME280;66144;50.020;14.422;2023-05-17T06:03:44;99276.47;;;12.44;55.48
77171;BME280;66144;50.020;14.422;2023-05-17T06:06:09;99278.28;;;12.66;54.28
77171;BME280;66144;50.020;14.422;2023-05-17T06:08:35;99283.59;;;12.76;53.00
77171;BME280;66144;50.020;14.422;2023-05-17T06:11:00;99283.31;;;12.99;52.71
77171;BME280;66144;50.020;14.422;2023-05-17T06:13:28;99270.03;;;13.11;51.71
77171;BME280;66144;50.020;14.422;2023-05-17T06:15:54;99261.94;;;13.44;51.23
77171;BME280;66144;50.020;14.422;2023-05-17T06:18:19;99272.28;;;13.61;51.58
77171;BME280;66144;50.020;14.422;2023-05-17T06:20:45;99271.50;;;13.61;51.19
77171;BME280;66144;50.020;14.422;2023-05-17T06:23:10;99280.56;;;13.85;52.47
77171;BME280;66144;50.020;14.422;2023-05-17T06:25:36;99280.91;;;13.99;50.12
77171;BME280;66144;50.020;14.422;2023-05-17T06:28:02;99278.34;;;14.14;50.05
77171;BME280;66144;50.020;14.422;2023-05-17T06:30:28;99280.75;;;14.21;49.55
77171;BME280;66144;50.020;14.422;2023-05-17T06:32:54;99279.69;;;14.27;51.48
77171;BME280;66144;50.020;14.422;2023-05-17T06:35:19;99286.63;;;14.48;49.83
77171;BME280;66144;50.020;14.422;2023-05-17T06:37:44;99291.72;;;14.75;50.45
77171;BME280;66144;50.020;14.422;2023-05-17T06:40:11;99292.28;;;15.12;48.52
77171;BME280;66144;50.020;14.422;2023-05-17T06:42:36;99293.59;;;15.40;47.79
77171;BME280;66144;50.020;14.422;2023-05-17T06:45:02;99286.97;;;15.88;46.75
77171;BME280;66144;50.020;14.422;2023-05-17T06:47:27;99293.03;;;15.84;46.16
77171;BME280;66144;50.020;14.422;2023-05-17T06:49:53;99289.06;;;15.97;46.21
77171;BME280;66144;50.020;14.422;2023-05-17T06:52:22;99289.38;;;16.49;44.64
77171;BME280;66144;50.020;14.422;2023-05-17T06:54:48;99296.78;;;16.47;44.20
77171;BME280;66144;50.020;14.422;2023-05-17T06:57:14;99295.25;;;16.90;43.27
77171;BME280;66144;50.020;14.422;2023-05-17T06:59:39;99299.75;;;16.31;44.24
77171;BME280;66144;50.020;14.422;2023-05-17T07:02:05;99294.88;;;16.63;44.99
77171;BME280;66144;50.020;14.422;2023-05-17T07:04:30;99300.81;;;16.89;43.85
77171;BME280;66144;50.020;14.422;2023-05-17T07:06:56;99293.84;;;17.03;43.56
77171;BME280;66144;50.020;14.422;2023-05-17T07:09:21;99285.03;;;17.13;42.36
77171;BME280;66144;50.020;14.422;2023-05-17T07:11:47;99293.13;;;17.55;42.54
77171;BME280;66144;50.020;14.422;2023-05-17T07:14:12;99296.28;;;17.29;42.32
77171;BME280;66144;50.020;14.422;2023-05-17T07:16:38;99283.88;;;17.87;42.28
77171;BME280;66144;50.020;14.422;2023-05-17T07:19:03;99287.59;;;18.52;40.37
77171;BME280;66144;50.020;14.422;2023-05-17T07:21:30;99296.91;;;18.87;40.21
77171;BME280;66144;50.020;14.422;2023-05-17T07:23:56;99284.84;;;19.32;39.52
77171;BME280;66144;50.020;14.422;2023-05-17T07:26:21;99280.03;;;20.08;37.77
77171;BME280;66144;50.020;14.422;2023-05-17T07:28:47;99286.63;;;20.11;37.18
77171;BME280;66144;50.020;14.422;2023-05-17T07:31:13;99292.75;;;20.61;35.95
77171;BME280;66144;50.020;14.422;2023-05-17T07:33:38;99289.59;;;20.73;35.92
77171;BME280;66144;50.020;14.422;2023-05-17T07:36:04;99296.47;;;20.38;37.05
77171;BME280;66144;50.020;14.422;2023-05-17T07:38:30;99294.97;;;20.18;36.23
77171;BME280;66144;50.020;14.422;2023-05-17T07:40:56;99302.81;;;20.23;37.69
77171;BME280;66144;50.020;14.422;2023-05-17T07:43:21;99296.44;;;20.24;36.70
77171;BME280;66144;50.020;14.422;2023-05-17T07:45:47;99293.09;;;20.32;36.63
77171;BME280;66144;50.020;14.422;2023-05-17T07:48:12;99291.56;;;20.67;35.85
77171;BME280;66144;50.020;14.422;2023-05-17T07:50:38;99295.94;;;20.85;36.47
77171;BME280;66144;50.020;14.422;2023-05-17T07:53:03;99302.22;;;20.53;36.60
77171;BME280;66144;50.020;14.422;2023-05-17T07:55:29;99292.09;;;20.55;36.64
77171;BME280;66144;50.020;14.422;2023-05-17T07:57:54;99296.44;;;20.51;36.36
77171;BME280;66144;50.020;14.422;2023-05-17T08:00:20;99291.63;;;20.12;35.94
77171;BME280;66144;50.020;14.422;2023-05-17T08:02:45;99300.09;;;20.00;36.39
77171;BME280;66144;50.020;14.422;2023-05-17T08:05:11;99302.91;;;19.90;36.42
77171;BME280;66144;50.020;14.422;2023-05-17T08:07:36;99301.56;;;19.93;37.61
77171;BME280;66144;50.020;14.422;2023-05-17T08:10:01;99299.13;;;20.38;36.12
77171;BME280;66144;50.020;14.422;2023-05-17T08:12:27;99294.41;;;20.71;35.14
77171;BME280;66144;50.020;14.422;2023-05-17T08:14:52;99300.94;;;21.23;34.13
77171;BME280;66144;50.020;14.422;2023-05-17T08:17:17;99292.59;;;21.69;34.20
77171;BME280;66144;50.020;14.422;2023-05-17T08:19:43;99305.44;;;21.76;34.04
77171;BME280;66144;50.020;14.422;2023-05-17T08:22:08;99304.88;;;21.56;33.72
77171;BME280;66144;50.020;14.422;2023-05-17T08:24:34;99304.88;;;21.56;34.11
77171;BME280;66144;50.020;14.422;2023-05-17T08:27:00;99311.63;;;21.31;36.02
77171;BME280;66144;50.020;14.422;2023-05-17T08:29:26;99319.31;;;20.61;36.06
77171;BME280;66144;50.020;14.422;2023-05-17T08:31:53;99333.66;;;19.91;37.41
77171;BME280;66144;50.020;14.422;2023-05-17T08:34:18;99321.63;;;19.53;38.19
77171;BME280;66144;50.020;14.422;2023-05-17T08:36:44;99322.91;;;19.04;38.24
77171;BME280;66144;50.020;14.422;2023-05-17T08:39:10;99315.03;;;18.80;39.49
77171;BME280;66144;50.020;14.422;2023-05-17T08:41:37;99318.03;;;18.07;40.46
77171;BME280;66144;50.020;14.422;2023-05-17T08:44:03;99321.75;;;18.06;40.48
77171;BME280;66144;50.020;14.422;2023-05-17T08:46:33;99336.88;;;18.01;40.81
77171;BME280;66144;50.020;14.422;2023-05-17T08:49:02;99338.47;;;17.34;41.39
77171;BME280;66144;50.020;14.422;2023-05-17T08:51:30;99333.47;;;17.32;42.45
77171;BME280;66144;50.020;14.422;2023-05-17T08:53:57;99331.59;;;17.38;43.27
77171;BME280;66144;50.020;14.422;2023-05-17T08:56:22;99340.06;;;17.35;43.10
77171;BME280;66144;50.020;14.422;2023-05-17T08:58:52;99335.34;;;16.92;42.31
77171;BME280;66144;50.020;14.422;2023-05-17T09:01:20;99329.34;;;16.77;43.46
77171;BME280;66144;50.020;14.422;2023-05-17T09:03:46;99332.81;;;16.72;42.75
77171;BME280;66144;50.020;14.422;2023-05-17T09:06:16;99329.69;;;16.65;44.92
77171;BME280;66144;50.020;14.422;2023-05-17T09:08:43;99333.63;;;16.63;43.14
77171;BME280;66144;50.020;14.422;2023-05-17T09:11:08;99330.97;;;16.63;43.78
77171;BME280;66144;50.020;14.422;2023-05-17T09:13:35;99340.97;;;16.76;43.11
77171;BME280;66144;50.020;14.422;2023-05-17T09:16:01;99334.19;;;16.54;42.21
77171;BME280;66144;50.020;14.422;2023-05-17T09:18:30;99338.72;;;16.44;42.32
77171;BME280;66144;50.020;14.422;2023-05-17T09:21:02;99343.91;;;16.59;44.86
77171;BME280;66144;50.020;14.422;2023-05-17T09:23:30;99338.44;;;16.50;44.20
77171;BME280;66144;50.020;14.422;2023-05-17T09:26:05;99341.38;;;16.39;44.20
77171;BME280;66144;50.020;14.422;2023-05-17T09:28:41;99339.63;;;16.14;45.20
77171;BME280;66144;50.020;14.422;2023-05-17T09:31:07;99355.69;;;16.12;45.59
77171;BME280;66144;50.020;14.422;2023-05-17T09:33:46;99352.59;;;15.75;45.53
77171;BME280;66144;50.020;14.422;2023-05-17T09:36:19;99352.84;;;15.68;45.34
77171;BME280;66144;50.020;14.422;2023-05-17T09:38:58;99353.91;;;15.77;44.99
77171;BME280;66144;50.020;14.422;2023-05-17T09:41:29;99362.84;;;15.61;45.86
77171;BME280;66144;50.020;14.422;2023-05-17T09:44:02;99358.38;;;15.36;45.91
77171;BME280;66144;50.020;14.422;2023-05-17T09:46:32;99363.09;;;15.44;45.31
77171;BME280;66144;50.020;14.422;2023-05-17T09:49:03;99362.81;;;15.41;45.84
77171;BME280;66144;50.020;14.422;2023-05-17T09:51:35;99351.25;;;15.42;46.01
77171;BME280;66144;50.020;14.422;2023-05-17T09:54:01;99362.31;;;15.44;46.34
77171;BME280;66144;50.020;14.422;2023-05-17T09:56:28;99360.22;;;15.61;46.47
77171;BME280;66144;50.020;14.422;2023-05-17T09:58:54;99359.69;;;15.84;46.32
77171;BME280;66144;50.020;14.422;2023-05-17T10:01:20;99350.47;;;15.82;45.76
77171;BME280;66144;50.020;14.422;2023-05-17T10:03:46;99348.63;;;15.82;45.50
77171;BME280;66144;50.020;14.422;2023-05-17T10:06:13;99353.34;;;16.01;44.88
77171;BME280;66144;50.020;14.422;2023-05-17T10:08:42;99349.63;;;16.07;45.24
77171;BME280;66144;50.020;14.422;2023-05-17T10:11:09;99342.47;;;16.17;43.71
77171;BME280;66144;50.020;14.422;2023-05-17T10:13:41;99334.34;;;16.14;44.07
77171;BME280;66144;50.020;14.422;2023-05-17T10:16:09;99333.25;;;16.25;43.77
77171;BME280;66144;50.020;14.422;2023-05-17T10:18:37;99335.94;;;16.15;44.25
77171;BME280;66144;50.020;14.422;2023-05-17T10:21:06;99339.56;;;16.24;43.70
77171;BME280;66144;50.020;14.422;2023-05-17T10:23:32;99344.53;;;16.41;44.52
77171;BME280;66144;50.020;14.422;2023-05-17T10:25:58;99341.69;;;16.22;45.14
77171;BME280;66144;50.020;14.422;2023-05-17T10:28:24;99336.16;;;16.18;45.48
77171;BME280;66144;50.020;14.422;2023-05-17T10:30:52;99355.44;;;16.04;45.36
77171;BME280;66144;50.020;14.422;2023-05-17T10:33:19;99352.03;;;15.78;45.89
77171;BME280;66144;50.020;14.422;2023-05-17T10:35:46;99361.25;;;15.80;45.89
77171;BME280;66144;50.020;14.422;2023-05-17T10:38:11;99354.19;;;15.71;47.43
77171;BME280;66144;50.020;14.422;2023-05-17T10:40:38;99349.69;;;15.71;46.16
77171;BME280;66144;50.020;14.422;2023-05-17T10:43:06;99352.31;;;15.61;45.96
77171;BME280;66144;50.020;14.422;2023-05-17T10:45:32;99350.75;;;15.55;45.48
77171;BME280;66144;50.020;14.422;2023-05-17T10:47:59;99355.97;;;15.30;46.19
77171;BME280;66144;50.020;14.422;2023-05-17T10:50:25;99350.19;;;15.43;45.63
77171;BME280;66144;50.020;14.422;2023-05-17T10:52:52;99336.28;;;15.58;45.76
77171;BME280;66144;50.020;14.422;2023-05-17T10:55:23;99332.84;;;15.77;45.10
77171;BME280;66144;50.020;14.422;2023-05-17T10:58:19;99330.47;;;15.71;45.33
77171;BME280;66144;50.020;14.422;2023-05-17T11:00:48;99327.81;;;15.86;45.71
77171;BME280;66144;50.020;14.422;2023-05-17T11:03:19;99334.63;;;16.02;45.83
77171;BME280;66144;50.020;14.422;2023-05-17T11:06:17;99330.66;;;16.05;47.14
77171;BME280;66144;50.020;14.422;2023-05-17T11:09:04;99329.34;;;15.97;45.80
77171;BME280;66144;50.020;14.422;2023-05-17T11:11:30;99325.19;;;15.91;45.00
77171;BME280;66144;50.020;14.422;2023-05-17T11:13:55;99328.34;;;15.93;44.40
77171;BME280;66144;50.020;14.422;2023-05-17T11:16:42;99326.50;;;15.88;44.86
77171;BME280;66144;50.020;14.422;2023-05-17T11:19:11;99325.16;;;15.96;45.96
77171;BME280;66144;50.020;14.422;2023-05-17T11:21:46;99335.94;;;16.05;45.71
77171;BME280;66144;50.020;14.422;2023-05-17T11:24:15;99323.50;;;16.26;43.27
77171;BME280;66144;50.020;14.422;2023-05-17T11:26:44;99316.63;;;16.24;43.07
77171;BME280;66144;50.020;14.422;2023-05-17T11:29:10;99322.44;;;16.27;43.37
77171;BME280;66144;50.020;14.422;2023-05-17T11:31:42;99323.78;;;16.19;42.85
77171;BME280;66144;50.020;14.422;2023-05-17T11:34:08;99322.72;;;16.20;43.40
77171;BME280;66144;50.020;14.422;2023-05-17T11:36:51;99327.50;;;16.08;44.10
77171;BME280;66144;50.020;14.422;2023-05-17T11:39:21;99324.88;;;16.03;44.83
77171;BME280;66144;50.020;14.422;2023-05-17T11:41:51;99333.09;;;15.76;45.03
77171;BME280;66144;50.020;14.422;2023-05-17T11:46:49;99331.25;;;15.51;45.98
77171;BME280;66144;50.020;14.422;2023-05-17T11:49:15;99323.09;;;15.68;45.86
77171;BME280;66144;50.020;14.422;2023-05-17T11:51:41;99331.00;;;15.68;45.08
77171;BME280;66144;50.020;14.422;2023-05-17T11:54:08;99336.25;;;15.78;45.80
77171;BME280;66144;50.020;14.422;2023-05-17T11:56:35;99336.81;;;15.75;45.89
77171;BME280;66144;50.020;14.422;2023-05-17T11:59:01;99342.06;;;15.75;44.96
77171;BME280;66144;50.020;14.422;2023-05-17T12:01:27;99350.25;;;15.58;45.87
77171;BME280;66144;50.020;14.422;2023-05-17T12:03:56;99349.19;;;15.74;45.73
77171;BME280;66144;50.020;14.422;2023-05-17T12:06:25;99352.34;;;15.71;45.74
77171;BME280;66144;50.020;14.422;2023-05-17T12:08:52;99351.28;;;15.57;46.12
77171;BME280;66144;50.020;14.422;2023-05-17T12:11:18;99358.66;;;15.65;46.06
77171;BME280;66144;50.020;14.422;2023-05-17T12:13:46;99359.94;;;15.52;46.01
77171;BME280;66144;50.020;14.422;2023-05-17T12:16:14;99360.72;;;15.43;46.55
77171;BME280;66144;50.020;14.422;2023-05-17T12:18:43;99352.28;;;15.41;45.78
77171;BME280;66144;50.020;14.422;2023-05-17T12:21:13;99340.72;;;15.32;46.31
77171;BME280;66144;50.020;14.422;2023-05-17T12:23:40;99355.47;;;15.48;45.70
77171;BME280;66144;50.020;14.422;2023-05-17T12:26:08;99358.13;;;15.63;46.73
77171;BME280;66144;50.020;14.422;2023-05-17T12:28:35;99359.97;;;15.63;45.57
77171;BME280;66144;50.020;14.422;2023-05-17T12:31:02;99367.34;;;15.71;46.46
77171;BME280;66144;50.020;14.422;2023-05-17T12:33:30;99363.13;;;15.65;44.97
77171;BME280;66144;50.020;14.422;2023-05-17T12:35:56;99368.91;;;15.51;44.81
77171;BME280;66144;50.020;14.422;2023-05-17T12:38:21;99369.94;;;15.45;44.29
77171;BME280;66144;50.020;14.422;2023-05-17T12:40:48;99374.19;;;15.62;44.91
77171;BME280;66144;50.020;14.422;2023-05-17T12:43:14;99368.66;;;15.63;44.88
77171;BME280;66144;50.020;14.422;2023-05-17T12:45:40;99373.41;;;15.61;45.26
77171;BME280;66144;50.020;14.422;2023-05-17T12:48:06;99374.97;;;15.67;47.48
77171;BME280;66144;50.020;14.422;2023-05-17T12:50:31;99374.44;;;15.65;45.13
77171;BME280;66144;50.020;14.422;2023-05-17T12:52:57;99372.06;;;15.64;45.26
77171;BME280;66144;50.020;14.422;2023-05-17T12:55:23;99366.53;;;15.60;46.15
77171;BME280;66144;50.020;14.422;2023-05-17T12:57:52;99352.31;;;15.61;45.07
77171;BME280;66144;50.020;14.422;2023-05-17T13:00:19;99367.59;;;15.54;44.73
77171;BME280;66144;50.020;14.422;2023-05-17T13:02:45;99362.06;;;15.50;46.35
77171;BME280;66144;50.020;14.422;2023-05-17T13:05:18;99363.88;;;15.45;46.19